Detall de PIREP

Printer-friendly versionPDF version

[2017/05/14 08:38:00]
Flight IATA:CT3205
Pilot Number:012
Company ICAO:CAT
Aircraft Type:MD11/E
PAX:130
Aircraft Registration:PAX
Departing Airport: EDDT
Destination Airport: LEPA
Alternate Airport:LEBL
Online: VATSIM
Route:BRANE Y263 LODRO UM736 GALMA AMOSA UN869 NEMOS GVA BALSI UN852 VERSO UL129 LUNIK
Flight Level:F350
No Slew and time accel
No pause
Crash detect
Detect pilot in Cockpit between each 30 and 45 minutes
08:38 Zero fuel Weight: 334341 Lbs, Fuel Weight: 54852 Lbs
08:38 VATSIM:EDDT 140820Z 28005KT 240V320 9999 FEW024 SCT270 19/12 Q1019 NOSIG
08:38 VATSIM:LEPA 140800Z 24004KT 210V330 9999 SCT012 20/16 Q1023 NOSIG
08:40 Parking Brakes off
08:43 Take-off
08:43 Take off Weight: 388303 Lbs
08:43 Wind: 279º @ 005 Knots Heading: 258º
08:43 POS N52º 33´ 35´´ E013º 17´ 20´´
08:43 Flaps:3 at 195 Knots
08:43 Gear Up: 202 Knots
08:44 Flaps:2 at 198 Knots
08:44 Flaps:3 at 201 Knots
08:44 Flaps:2 at 202 Knots
08:44 Flaps:1 at 203 Knots
08:44 Flaps:0 at 216 Knots
08:54 TOC
08:54 Fuel Weight: 46543 Lb
08:58 Wind:241º@021 Knots Heading: 197º Ground Speed: 463 Knots Altitude 35200 ft
09:13 Wind:243º@022 Knots Heading: 189º Ground Speed: 466 Knots Altitude 35246 ft
09:28 Wind:241º@028 Knots Heading: 229º Ground Speed: 451 Knots Altitude 35259 ft
09:43 Wind:238º@037 Knots Heading: 226º Ground Speed: 441 Knots Altitude 35295 ft
09:58 Wind:237º@038 Knots Heading: 189º Ground Speed: 454 Knots Altitude 35311 ft
10:13 Wind:248º@038 Knots Heading: 204º Ground Speed: 453 Knots Altitude 35288 ft
10:28 Wind:286º@038 Knots Heading: 194º Ground Speed: 486 Knots Altitude 35288 ft
10:31 TOD
10:31 Fuel Weight: 22773 Lb
10:43 Wind:264º@019 Knots Heading: 178º Ground Speed: 316 Knots Altitude 12749 ft
10:44 Flaps:1 at 259 Knots
10:46 Flaps:2 at 268 Knots
10:46 Flaps:3 at 267 Knots
10:52 Gear Down: 246 Knots
10:52 Flaps:4 at 242 Knots
10:52 Flaps:3 at 240 Knots
10:52 Flaps:4 at 238 Knots
10:53 Flaps:5 at 222 Knots
10:53 Flaps:6 at 214 Knots
10:53 Flaps:7 at 205 Knots
10:53 Flaps:6 at 201 Knots
10:53 Flaps:7 at 192 Knots
10:57 TouchDown:Rate -227 ft/min Speed: 143 Knots
10:57 VATSIM:LEPA 141030Z 25008KT 220V290 9999 FEW030 23/14 Q1023 NOSIG
10:57 Land
10:57 Wind:235º@005 Knots
10:57 Heading: 239º
10:57 Flight Duration: 02:14
10:57 Landing Weight: 352906 Lbs
10:57 POS N39º 32´ 49´´ E002º 44´ 38´´
10:59 Parking brakes on
10:59 Block to Block Duration: 02:19
10:59 Final Fuel: 18375 Lbls
10:59 Spent Fuel: 36477 Lbls
10:59 Flight Length: 945 NM
10:59 TOD Land Length: 131 NM

Exportar CSV

Powered by Drupal - Modified by Danger4k